Time;durP1;ratioP1;P1;durP2;ratioP2;P2;SDS_P1;SDS_P2;PMS_P1;PMS_P2;Temp;Humidity;BMP_temperature;BMP_pressure;BME280_temperature;BME280_humidity;BME280_pressure;Samples;Min_cycle;Max_cycle;Signal;HPM_P1;HPM_P2
2023/07/04 00:01:49;;;;;;;4.43;2.40;;;;;;;16.81;nan;100061.31;4992338;28;20211;-89
2023/07/04 00:04:20;;;;;;;4.57;2.23;;;;;;;16.72;nan;100064.25;4991198;28;20273;-89
2023/07/04 00:06:47;;;;;;;3.77;2.57;;;;;;;16.78;nan;100078.56;4990894;28;20205;-88
2023/07/04 00:09:12;;;;;;;3.50;1.87;;;;;;;16.81;nan;100077.84;4990779;28;20212;-87
2023/07/04 00:11:38;;;;;;;1.77;1.67;;;;;;;16.71;nan;100075.66;4990930;28;20204;-88
2023/07/04 00:14:03;;;;;;;10.07;3.07;;;;;;;16.68;nan;100070.88;4991004;28;20196;-88
2023/07/04 00:16:29;;;;;;;9.43;1.83;;;;;;;16.70;nan;100079.59;4992007;28;20292;-87
2023/07/04 00:18:54;;;;;;;2.27;1.83;;;;;;;16.72;nan;100066.22;4992356;28;20181;-88
2023/07/04 00:21:19;;;;;;;2.30;2.10;;;;;;;16.72;nan;100067.03;4991949;28;20181;-88
2023/07/04 00:23:47;;;;;;;0.97;0.87;;;;;;;16.71;nan;100059.13;4992143;28;20185;-87
2023/07/04 00:26:17;;;;;;;2.73;1.63;;;;;;;16.69;nan;100072.47;4992306;28;20240;-88
2023/07/04 00:28:43;;;;;;;6.33;2.50;;;;;;;16.77;nan;100080.53;4990796;28;20695;-88
2023/07/04 00:31:10;;;;;;;9.77;2.23;;;;;;;16.81;nan;100081.41;4991737;28;20182;-88
2023/07/04 00:33:36;;;;;;;2.37;1.50;;;;;;;16.91;nan;100077.25;4990891;28;20217;-88
2023/07/04 00:36:04;;;;;;;11.30;1.60;;;;;;;16.90;nan;100087.50;4990823;28;20236;-88
2023/07/04 00:38:34;;;;;;;2.73;1.63;;;;;;;16.91;nan;100094.63;4991971;28;20260;-88
2023/07/04 00:41:01;;;;;;;1.13;0.67;;;;;;;16.82;nan;100093.25;4991760;28;20649;-87
2023/07/04 00:43:59;;;;;;;1.37;0.73;;;;;;;16.79;nan;100086.50;4991769;28;20244;-88
2023/07/04 00:46:45;;;;;;;3.63;2.20;;;;;;;16.77;nan;100099.03;4990849;28;20213;-88
2023/07/04 00:49:17;;;;;;;0.87;0.87;;;;;;;16.61;nan;100083.31;4990604;28;20212;-89
2023/07/04 00:51:47;;;;;;;7.87;2.10;;;;;;;16.72;nan;100093.81;4993687;28;20189;-88
2023/07/04 00:54:15;;;;;;;7.00;2.37;;;;;;;16.65;nan;100103.50;4995568;28;20188;-88
2023/07/04 00:56:41;;;;;;;2.23;1.50;;;;;;;16.74;nan;100102.53;4994374;28;20212;-88
2023/07/04 00:59:09;;;;;;;7.27;1.30;;;;;;;16.71;nan;100092.22;4995474;28;20180;-88
2023/07/04 01:01:34;;;;;;;4.13;2.57;;;;;;;16.84;nan;100116.56;4994021;28;20189;-88
2023/07/04 01:04:03;;;;;;;5.13;1.53;;;;;;;16.90;nan;100111.53;4994199;28;20213;-88
2023/07/04 01:06:47;;;;;;;8.47;1.40;;;;;;;16.93;nan;100106.13;4994161;28;20688;-88
2023/07/04 01:09:17;;;;;;;12.37;2.30;;;;;;;16.90;nan;100106.03;4994097;28;20216;-87
2023/07/04 01:11:45;;;;;;;1.40;1.30;;;;;;;16.85;nan;100076.75;4993882;28;20192;-87
2023/07/04 01:14:25;;;;;;;1.67;0.80;;;;;;;16.91;nan;100102.91;4994075;28;20262;-89
2023/07/04 01:16:52;;;;;;;1.23;0.90;;;;;;;16.87;nan;100107.56;4995224;28;20686;-87
2023/07/04 01:19:38;;;;;;;3.17;2.13;;;;;;;16.88;nan;100100.88;4995047;28;20678;-87
2023/07/04 01:22:14;;;;;;;7.63;2.77;;;;;;;16.80;nan;100093.63;4995156;28;20237;-88
2023/07/04 01:24:50;;;;;;;5.50;1.60;;;;;;;16.70;nan;100090.63;4993899;28;20180;-86
2023/07/04 01:27:17;;;;;;;2.37;1.17;;;;;;;16.82;nan;100109.81;4995074;28;20679;-88
2023/07/04 01:29:43;;;;;;;4.73;1.43;;;;;;;16.81;nan;100116.50;4994774;28;20299;-88
2023/07/04 01:32:08;;;;;;;0.10;0.10;;;;;;;16.70;nan;100096.13;4994825;28;20212;-87
2023/07/04 01:34:34;;;;;;;1.60;0.87;;;;;;;16.76;nan;100119.50;4993905;28;20603;-87
2023/07/04 01:37:01;;;;;;;0.93;0.90;;;;;;;16.72;nan;100113.13;4994711;28;20284;-88
2023/07/04 01:39:27;;;;;;;0.70;0.70;;;;;;;16.72;nan;100115.88;4993322;28;20216;-88
2023/07/04 01:41:53;;;;;;;0.63;0.63;;;;;;;16.72;nan;100129.69;4993587;28;20184;-88
2023/07/04 01:44:18;;;;;;;1.00;0.77;;;;;;;16.74;nan;100124.59;4993574;28;20188;-87
2023/07/04 01:46:44;;;;;;;1.20;1.10;;;;;;;16.68;nan;100129.59;4994562;28;20201;-87
2023/07/04 01:49:09;;;;;;;0.60;0.47;;;;;;;16.56;nan;100127.72;4993265;28;20217;-88
2023/07/04 01:51:38;;;;;;;5.20;1.47;;;;;;;16.59;nan;100127.00;4993232;28;20745;-88
2023/07/04 01:54:05;;;;;;;0.00;0.00;;;;;;;16.65;nan;100142.13;4993618;28;20181;-88
2023/07/04 01:56:32;;;;;;;7.13;0.67;;;;;;;16.48;nan;100150.78;4993364;28;20204;-87
2023/07/04 01:58:58;;;;;;;0.10;0.10;;;;;;;16.33;nan;100143.31;4994487;28;20207;-87
2023/07/04 02:01:24;;;;;;;0.97;0.93;;;;;;;16.14;nan;100187.34;4993964;28;20185;-88
2023/07/04 02:03:50;;;;;;;0.50;0.50;;;;;;;15.89;nan;100184.75;4994380;28;20185;-87
2023/07/04 02:06:15;;;;;;;20.07;1.33;;;;;;;15.65;nan;100190.41;4992832;28;20212;-88
2023/07/04 02:08:40;;;;;;;0.27;0.27;;;;;;;15.47;nan;100218.19;4994175;28;20201;-87
2023/07/04 02:11:06;;;;;;;9.07;0.47;;;;;;;14.95;nan;100195.41;4992787;28;20814;-88
2023/07/04 02:13:32;;;;;;;0.00;0.00;;;;;;;14.56;nan;100216.97;4994325;28;20199;-88
2023/07/04 02:15:57;;;;;;;0.30;0.30;;;;;;;14.37;nan;100205.72;4992941;28;20262;-88
2023/07/04 02:18:24;;;;;;;0.40;0.40;;;;;;;14.17;nan;100248.63;4994013;28;20608;-88
2023/07/04 02:20:49;;;;;;;0.47;0.47;;;;;;;13.90;nan;100261.03;4994466;28;20208;-88
2023/07/04 02:23:14;;;;;;;0.60;0.60;;;;;;;13.87;nan;100253.44;4990847;28;20194;-88
2023/07/04 02:25:40;;;;;;;0.50;0.43;;;;;;;13.85;nan;100242.00;4992689;28;20225;-88
2023/07/04 02:28:06;;;;;;;0.30;0.30;;;;;;;13.80;nan;100352.06;4992553;28;20185;-87
2023/07/04 02:30:31;;;;;;;1.60;1.50;;;;;;;13.74;nan;100268.28;4992298;28;20825;-87
2023/07/04 02:32:57;;;;;;;1.03;0.70;;;;;;;13.59;nan;100206.56;4992567;28;20209;-88
2023/07/04 02:35:22;;;;;;;9.70;1.53;;;;;;;13.36;nan;100186.91;4992489;28;20291;-89
2023/07/04 02:37:48;;;;;;;0.10;0.10;;;;;;;13.50;nan;100225.06;4992636;28;20565;-87
2023/07/04 02:40:13;;;;;;;5.53;2.13;;;;;;;13.48;nan;100221.84;4993490;28;20184;-87
2023/07/04 02:42:38;;;;;;;0.70;0.70;;;;;;;13.27;nan;100205.38;4993080;28;20655;-88
2023/07/04 02:45:06;;;;;;;0.60;0.57;;;;;;;13.35;nan;100846.66;4993607;28;20189;-88
2023/07/04 02:47:32;;;;;;;0.50;0.50;;;;;;;13.34;nan;100416.94;4993406;28;20185;-88
2023/07/04 02:49:57;;;;;;;1.50;0.90;;;;;;;13.27;nan;100381.78;4993164;28;20674;-88
2023/07/04 02:52:24;;;;;;;1.23;1.13;;;;;;;13.32;nan;100337.72;4993371;28;20610;-87
2023/07/04 02:54:50;;;;;;;2.23;1.30;;;;;;;13.35;nan;100298.63;4992415;28;20189;-88
2023/07/04 02:57:16;;;;;;;5.07;0.93;;;;;;;13.38;nan;100289.72;4993321;28;20196;-88
2023/07/04 02:59:42;;;;;;;2.73;1.83;;;;;;;13.35;nan;100293.13;4991802;28;20204;-87
2023/07/04 03:02:07;;;;;;;0.47;0.40;;;;;;;13.43;nan;100272.25;5008430;28;20224;-87
2023/07/04 03:04:32;;;;;;;1.03;0.80;;;;;;;13.48;nan;100283.03;4993119;28;20192;-88
2023/07/04 03:06:58;;;;;;;0.73;0.50;;;;;;;13.55;nan;100280.53;4993053;28;20295;-88
2023/07/04 03:09:24;;;;;;;1.37;0.80;;;;;;;13.55;nan;100283.28;4992898;28;20209;-86
2023/07/04 03:11:49;;;;;;;0.67;0.50;;;;;;;13.52;nan;100270.25;4991946;28;20562;-88
2023/07/04 03:14:15;;;;;;;3.53;0.87;;;;;;;13.52;nan;100280.41;4991402;28;20188;-88
2023/07/04 03:16:40;;;;;;;0.63;0.43;;;;;;;13.57;nan;100277.47;4992951;28;20208;-88
2023/07/04 03:19:06;;;;;;;0.90;0.80;;;;;;;13.52;nan;100270.25;4991607;28;20380;-87
2023/07/04 03:21:31;;;;;;;1.50;0.93;;;;;;;13.54;nan;100297.34;4991574;28;20184;-88
2023/07/04 03:23:56;;;;;;;5.87;1.27;;;;;;;13.55;nan;100310.75;4991771;28;20189;-87
2023/07/04 03:26:22;;;;;;;0.97;0.70;;;;;;;13.64;nan;100318.91;4991753;28;20629;-86
2023/07/04 03:28:47;;;;;;;0.70;0.70;;;;;;;13.69;nan;100326.94;4992778;28;20212;-88
2023/07/04 03:31:12;;;;;;;0.13;0.13;;;;;;;13.74;nan;100328.69;4991378;28;20181;-88
2023/07/04 03:33:37;;;;;;;0.80;0.80;;;;;;;13.73;nan;100330.63;4992812;28;20219;-86
2023/07/04 03:36:03;;;;;;;1.13;1.10;;;;;;;13.74;nan;100336.91;4992621;28;20231;-87
2023/07/04 03:38:28;;;;;;;1.80;1.23;;;;;;;13.73;nan;100346.28;4992715;28;20212;-87
2023/07/04 03:40:54;;;;;;;1.27;0.50;;;;;;;13.70;nan;100343.09;4992498;28;20615;-87
2023/07/04 03:43:20;;;;;;;0.57;0.57;;;;;;;13.70;nan;100354.06;4991517;28;20546;-87
2023/07/04 03:45:46;;;;;;;1.50;0.90;;;;;;;13.61;nan;100336.88;4991564;28;20300;-87
2023/07/04 03:48:11;;;;;;;1.53;0.83;;;;;;;13.55;nan;100332.69;4992589;28;20185;-87
2023/07/04 03:50:38;;;;;;;0.33;0.30;;;;;;;13.49;nan;100339.53;4992595;28;20209;-87
2023/07/04 03:53:03;;;;;;;2.57;1.30;;;;;;;13.50;nan;100338.41;4992743;28;20181;-87
2023/07/04 03:55:29;;;;;;;1.97;1.23;;;;;;;13.39;nan;100340.72;4991470;28;20215;-87
2023/07/04 03:57:54;;;;;;;0.40;0.40;;;;;;;13.31;nan;100299.63;4992729;28;20192;-86
2023/07/04 04:00:19;;;;;;;0.90;0.67;;;;;;;13.26;nan;100322.56;4991143;28;20184;-87
2023/07/04 04:02:45;;;;;;;0.30;0.30;;;;;;;13.24;nan;100311.13;4991156;28;20188;-87
2023/07/04 04:05:12;;;;;;;0.63;0.63;;;;;;;13.23;nan;100306.78;4992404;28;20232;-87
2023/07/04 04:07:37;;;;;;;2.13;0.77;;;;;;;13.24;nan;100318.53;4991294;28;20265;-87
2023/07/04 04:10:03;;;;;;;5.87;1.33;;;;;;;13.22;nan;100324.38;4991106;28;20636;-87
2023/07/04 04:12:28;;;;;;;1.13;0.60;;;;;;;13.26;nan;100329.97;4991341;28;20272;-87
2023/07/04 04:14:53;;;;;;;1.47;1.27;;;;;;;13.29;nan;100329.31;4992494;28;20181;-87
2023/07/04 04:17:19;;;;;;;1.50;0.83;;;;;;;13.31;nan;100327.88;4992495;28;20208;-87
2023/07/04 04:19:44;;;;;;;0.63;0.63;;;;;;;13.40;nan;100344.25;4992237;28;20259;-87
2023/07/04 04:22:09;;;;;;;1.33;1.23;;;;;;;13.42;nan;100342.00;4992528;28;20211;-87
2023/07/04 04:24:36;;;;;;;0.87;0.80;;;;;;;13.36;nan;100332.34;4987960;28;20193;-87
2023/07/04 04:27:03;;;;;;;0.07;0.00;;;;;;;13.37;nan;100331.22;5013545;23;20228;-85
2023/07/04 04:29:28;;;;;;;0.63;0.37;;;;;;;13.34;nan;100338.19;4995462;28;20236;-86
2023/07/04 04:31:55;;;;;;;0.20;0.13;;;;;;;13.36;nan;100341.38;4995895;28;20200;-84
2023/07/04 04:34:22;;;;;;;0.50;0.50;;;;;;;13.30;nan;100342.69;4998398;28;20243;-87
2023/07/04 04:36:48;;;;;;;0.20;0.20;;;;;;;13.27;nan;100342.56;4998015;28;20201;-85
2023/07/04 04:39:13;;;;;;;1.00;0.70;;;;;;;13.22;nan;100348.25;4999647;28;20177;-86
2023/07/04 04:41:40;;;;;;;1.20;0.63;;;;;;;13.26;nan;100329.97;4994520;28;20201;-86
2023/07/04 04:44:06;;;;;;;0.10;0.10;;;;;;;13.24;nan;100345.97;4995832;28;20220;-85
2023/07/04 04:46:32;;;;;;;1.07;0.77;;;;;;;13.19;nan;100341.50;5000027;28;20295;-85
2023/07/04 04:49:04;;;;;;;1.17;0.67;;;;;;;13.28;nan;100336.75;4997879;28;20210;-87
2023/07/04 04:51:31;;;;;;;0.43;0.43;;;;;;;13.28;nan;100355.16;4997305;28;20671;-86
2023/07/04 04:53:57;;;;;;;0.50;0.50;;;;;;;13.33;nan;100365.94;4991822;28;20235;-85
2023/07/04 04:56:22;;;;;;;0.60;0.60;;;;;;;13.37;nan;100380.59;5001265;28;20216;-86
2023/07/04 04:58:48;;;;;;;0.73;0.60;;;;;;;13.55;nan;100373.06;4997240;28;20220;-86
2023/07/04 05:01:22;;;;;;;1.20;0.43;;;;;;;13.62;nan;100362.38;5001169;28;20232;-86
2023/07/04 05:03:51;;;;;;;1.50;0.73;;;;;;;13.68;nan;100363.78;5003646;28;20215;-87
2023/07/04 05:06:17;;;;;;;0.10;0.10;;;;;;;13.77;nan;100378.25;5001814;28;20639;-87
2023/07/04 05:08:43;;;;;;;0.60;0.37;;;;;;;13.80;nan;100383.06;5019044;28;20205;-87
2023/07/04 05:11:08;;;;;;;0.53;0.30;;;;;;;13.81;nan;100381.13;5018262;28;20540;-87
2023/07/04 05:13:35;;;;;;;0.53;0.40;;;;;;;13.84;nan;100375.78;5002755;28;20253;-85
2023/07/04 05:16:02;;;;;;;1.33;1.10;;;;;;;13.98;nan;100394.72;5004803;28;20702;-87
2023/07/04 05:18:28;;;;;;;4.73;1.00;;;;;;;14.00;nan;100386.94;4998402;28;20196;-85
2023/07/04 05:21:04;;;;;;;2.60;0.90;;;;;;;14.06;nan;100391.13;4997968;28;20189;-86
2023/07/04 05:23:31;;;;;;;2.90;1.90;;;;;;;14.05;nan;100384.03;5014950;28;20181;-85
2023/07/04 05:26:01;;;;;;;0.17;0.17;;;;;;;14.13;nan;100385.06;4999512;28;20255;-85
2023/07/04 05:28:27;;;;;;;0.43;0.43;;;;;;;14.18;nan;100393.13;5013142;28;20188;-85
2023/07/04 05:31:03;;;;;;;0.47;0.47;;;;;;;14.22;nan;100400.34;4997750;28;20243;-85
2023/07/04 05:33:28;;;;;;;4.23;1.00;;;;;;;14.16;nan;100390.69;4998643;28;20678;-85
2023/07/04 05:36:10;;;;;;;0.03;0.03;;;;;;;14.26;nan;100395.78;4993708;28;20228;-85
2023/07/04 05:38:37;;;;;;;0.10;0.10;;;;;;;14.35;nan;100398.47;4987067;28;20190;-85
2023/07/04 05:41:06;;;;;;;4.07;0.57;;;;;;;14.39;nan;100399.38;4994360;28;20236;-85
2023/07/04 05:43:31;;;;;;;3.13;1.10;;;;;;;14.39;nan;100409.56;4997132;28;20200;-87
2023/07/04 05:45:56;;;;;;;0.73;0.73;;;;;;;14.45;nan;100414.53;4996931;28;20213;-85
2023/07/04 05:48:22;;;;;;;2.40;0.80;;;;;;;14.51;nan;100423.41;4997415;28;20655;-86
2023/07/04 05:50:51;;;;;;;0.83;0.70;;;;;;;14.62;nan;100424.59;4995962;28;20733;-85
2023/07/04 05:53:18;;;;;;;1.43;1.33;;;;;;;14.62;nan;100416.34;4997544;28;20185;-85
2023/07/04 05:55:43;;;;;;;5.77;1.37;;;;;;;14.68;nan;100416.91;4997680;28;20285;-85
2023/07/04 05:58:08;;;;;;;0.17;0.17;;;;;;;14.93;nan;100428.78;4993126;28;20189;-86
2023/07/04 06:00:34;;;;;;;2.93;1.73;;;;;;;14.87;nan;100434.50;4998703;28;20665;-85
2023/07/04 06:03:03;;;;;;;2.50;1.87;;;;;;;14.87;nan;100422.69;4997507;28;20263;-86
2023/07/04 06:05:28;;;;;;;2.57;1.23;;;;;;;14.86;nan;100419.13;4994899;28;20687;-87
2023/07/04 06:07:53;;;;;;;9.40;0.97;;;;;;;14.88;nan;100427.84;4997223;28;20187;-86
2023/07/04 06:10:19;;;;;;;1.33;1.23;;;;;;;14.83;nan;100427.28;4996580;28;20212;-85
2023/07/04 06:12:44;;;;;;;5.27;1.53;;;;;;;14.90;nan;100424.78;4996901;28;20308;-86
2023/07/04 06:15:09;;;;;;;0.67;0.60;;;;;;;15.00;nan;100431.78;4995813;28;20265;-85
2023/07/04 06:17:35;;;;;;;3.63;2.00;;;;;;;14.86;nan;100418.34;4991894;28;20209;-88
2023/07/04 06:20:00;;;;;;;1.10;1.03;;;;;;;14.93;nan;100413.09;4990803;28;20212;-86
2023/07/04 06:22:25;;;;;;;1.87;1.27;;;;;;;14.93;nan;100406.78;4995335;28;20188;-85
2023/07/04 06:24:51;;;;;;;0.87;0.87;;;;;;;15.01;nan;100408.63;4996187;28;20682;-86
2023/07/04 06:27:16;;;;;;;5.30;1.50;;;;;;;15.05;nan;100412.31;4994657;28;20590;-86
2023/07/04 06:29:41;;;;;;;1.83;1.57;;;;;;;15.10;nan;100409.31;5010837;28;20201;-87
2023/07/04 06:32:07;;;;;;;0.43;0.17;;;;;;;15.18;nan;100422.16;5010673;28;20185;-85
2023/07/04 06:34:34;;;;;;;9.93;1.70;;;;;;;15.27;nan;100428.38;4995867;28;20569;-85
2023/07/04 06:37:00;;;;;;;2.93;1.40;;;;;;;15.36;nan;100442.84;4991552;28;20244;-86
2023/07/04 06:39:25;;;;;;;0.20;0.10;;;;;;;15.48;nan;100431.84;4990670;28;20181;-85
2023/07/04 06:41:50;;;;;;;4.10;1.40;;;;;;;15.62;nan;100434.28;4987339;28;20177;-86
2023/07/04 06:44:16;;;;;;;1.27;1.17;;;;;;;15.79;nan;100441.47;4992227;28;20556;-88
2023/07/04 06:46:42;;;;;;;1.23;1.23;;;;;;;15.78;nan;100434.38;4994825;28;20208;-86
2023/07/04 06:49:07;;;;;;;3.20;1.40;;;;;;;15.80;nan;100436.78;4994216;28;20193;-85
2023/07/04 06:51:33;;;;;;;5.90;1.70;;;;;;;15.78;nan;100423.34;4990177;28;20675;-87
2023/07/04 06:54:00;;;;;;;0.93;0.93;;;;;;;15.86;nan;100430.66;4990397;28;20181;-86
2023/07/04 06:56:25;;;;;;;3.50;2.17;;;;;;;15.78;nan;100423.34;4996909;28;20209;-87
2023/07/04 06:58:55;;;;;;;0.40;0.40;;;;;;;15.72;nan;100438.50;4993621;28;20177;-87
2023/07/04 07:01:23;;;;;;;2.07;1.87;;;;;;;15.81;nan;100450.19;4994471;28;20201;-86
2023/07/04 07:03:51;;;;;;;0.80;0.80;;;;;;;15.96;nan;100443.97;4996273;28;20220;-86
2023/07/04 07:06:17;;;;;;;13.07;2.33;;;;;;;16.00;nan;100444.88;4993886;28;20206;-87
2023/07/04 07:08:42;;;;;;;1.77;1.67;;;;;;;16.08;nan;100439.59;4992581;28;20209;-85
2023/07/04 07:11:15;;;;;;;2.07;1.20;;;;;;;16.05;nan;100443.81;4991919;28;20304;-85
2023/07/04 07:13:41;;;;;;;1.50;1.07;;;;;;;16.03;nan;100455.19;4990778;28;20182;-85
2023/07/04 07:16:21;;;;;;;5.17;2.80;;;;;;;15.77;nan;100441.81;4992726;28;20440;-86
2023/07/04 07:18:48;;;;;;;2.00;1.50;;;;;;;15.68;nan;100448.59;5009582;28;20394;-86
2023/07/04 07:21:18;;;;;;;5.90;2.33;;;;;;;15.55;nan;100439.50;4995025;28;20219;-87
2023/07/04 07:23:44;;;;;;;13.10;0.90;;;;;;;15.63;nan;100452.41;4998638;28;20189;-88
2023/07/04 07:26:11;;;;;;;1.90;1.33;;;;;;;15.71;nan;100467.19;4993703;28;20260;-87
2023/07/04 07:28:41;;;;;;;3.90;2.00;;;;;;;15.65;nan;100457.56;4996297;28;20187;-86
2023/07/04 07:31:15;;;;;;;1.70;1.60;;;;;;;15.87;nan;100479.09;4997617;28;20181;-88
2023/07/04 07:33:45;;;;;;;2.40;2.00;;;;;;;16.05;nan;100482.41;4997404;28;20183;-86
2023/07/04 07:36:15;;;;;;;3.73;1.73;;;;;;;16.13;nan;100484.25;4997048;28;20204;-86
2023/07/04 07:38:40;;;;;;;0.73;0.73;;;;;;;16.19;nan;100485.59;4998665;28;20173;-86
2023/07/04 07:41:07;;;;;;;13.67;2.73;;;;;;;16.09;nan;100488.84;4996856;28;20181;-88
2023/07/04 07:43:33;;;;;;;6.40;2.37;;;;;;;15.95;nan;100472.69;4998466;28;20179;-86
2023/07/04 07:45:59;;;;;;;3.13;2.20;;;;;;;15.85;nan;100477.84;4996876;28;20216;-87
2023/07/04 07:48:24;;;;;;;4.37;2.00;;;;;;;15.85;nan;100486.13;4999275;28;20196;-87
2023/07/04 07:50:49;;;;;;;3.50;1.50;;;;;;;15.77;nan;100485.09;4997381;28;20216;-86
2023/07/04 07:53:15;;;;;;;2.80;1.90;;;;;;;15.80;nan;100481.66;4998853;28;20264;-87
2023/07/04 07:55:41;;;;;;;2.67;1.53;;;;;;;15.89;nan;100487.03;4995201;28;20212;-88
2023/07/04 07:58:08;;;;;;;2.80;2.40;;;;;;;15.80;nan;100483.59;4996100;28;20178;-87
2023/07/04 08:00:33;;;;;;;2.50;1.50;;;;;;;15.76;nan;100484.28;4996489;28;20645;-86
2023/07/04 08:02:59;;;;;;;4.40;0.90;;;;;;;15.70;nan;100488.41;4993946;28;20213;-86
2023/07/04 08:05:24;;;;;;;3.80;1.87;;;;;;;15.55;nan;100460.75;4997756;28;20342;-86
2023/07/04 08:07:49;;;;;;;8.47;2.50;;;;;;;15.56;nan;100468.66;4998918;28;20184;-87
2023/07/04 08:10:15;;;;;;;8.67;2.00;;;;;;;15.55;nan;100478.06;4999116;28;20205;-85
2023/07/04 08:12:40;;;;;;;1.33;1.23;;;;;;;15.56;nan;100476.91;4998130;28;20192;-86
2023/07/04 08:15:06;;;;;;;1.70;1.03;;;;;;;15.53;nan;100469.34;4999239;28;20180;-89
2023/07/04 08:17:31;;;;;;;0.97;0.77;;;;;;;15.59;nan;100479.00;4997883;28;20177;-87
2023/07/04 08:19:57;;;;;;;1.50;1.40;;;;;;;15.73;nan;100489.69;4999026;28;20181;-86
2023/07/04 08:22:22;;;;;;;0.70;0.70;;;;;;;15.84;nan;100485.31;4997375;28;20659;-87
2023/07/04 08:24:47;;;;;;;5.10;0.73;;;;;;;15.88;nan;100479.91;4998293;28;20711;-85
2023/07/04 08:27:12;;;;;;;4.43;1.30;;;;;;;15.80;nan;100478.09;5012457;28;20715;-87
2023/07/04 08:29:38;;;;;;;1.50;1.30;;;;;;;15.90;nan;100478.41;4998377;28;20698;-88
2023/07/04 08:32:05;;;;;;;3.37;1.97;;;;;;;15.76;nan;100466.94;4996361;28;20181;-86
2023/07/04 08:34:31;;;;;;;4.43;1.33;;;;;;;16.02;nan;100480.34;4983005;28;20188;-87
2023/07/04 08:36:57;;;;;;;1.00;1.00;;;;;;;16.08;nan;100464.41;4997096;28;20205;-88
2023/07/04 08:39:22;;;;;;;0.93;0.93;;;;;;;16.22;nan;100468.38;5000316;28;20659;-87
2023/07/04 08:41:59;;;;;;;4.27;1.40;;;;;;;16.45;nan;100493.47;4998861;28;20188;-86
2023/07/04 08:44:33;;;;;;;3.10;2.33;;;;;;;16.43;nan;100481.97;4997675;28;20173;-86
2023/07/04 08:46:59;;;;;;;0.80;0.80;;;;;;;16.53;nan;100478.72;4997100;28;20577;-86
2023/07/04 08:49:48;;;;;;;1.87;1.03;;;;;;;16.60;nan;100484.44;4993917;28;20196;-85
2023/07/04 08:52:30;;;;;;;3.17;1.00;;;;;;;16.62;nan;100482.13;4994857;28;20181;-88
2023/07/04 08:54:55;;;;;;;3.97;1.23;;;;;;;16.74;nan;100486.81;4995388;28;20184;-86
2023/07/04 08:57:37;;;;;;;0.97;0.70;;;;;;;17.09;nan;100503.56;4997183;28;20197;-86
2023/07/04 09:00:12;;;;;;;0.47;0.47;;;;;;;17.06;nan;100484.94;4996001;28;20197;-86
2023/07/04 09:02:47;;;;;;;0.40;0.40;;;;;;;17.23;nan;100500.38;4991236;28;20214;-88
2023/07/04 09:05:50;;;;;;;0.20;0.13;;;;;;;17.29;nan;100495.38;4996986;28;20261;-87
2023/07/04 09:08:29;;;;;;;7.83;1.57;;;;;;;17.32;nan;100497.44;4975948;28;20193;-86
2023/07/04 09:11:07;;;;;;;0.47;0.27;;;;;;;17.53;nan;100495.22;5015233;28;20263;-86
2023/07/04 09:13:41;;;;;;;5.20;1.63;;;;;;;17.72;nan;100516.63;4992476;28;20216;-87
2023/07/04 09:16:24;;;;;;;0.77;0.73;;;;;;;17.59;nan;100495.75;5000245;28;20201;-86
2023/07/04 09:19:01;;;;;;;1.10;0.77;;;;;;;17.52;nan;100490.88;4994970;28;20185;-87
2023/07/04 09:21:29;;;;;;;4.27;0.57;;;;;;;17.40;nan;100494.50;5000352;28;20195;-86
2023/07/04 09:24:01;;;;;;;0.67;0.67;;;;;;;17.44;nan;100489.88;5002232;28;20181;-86
2023/07/04 09:26:56;;;;;;;2.70;0.90;;;;;;;17.63;nan;100505.72;5002354;28;20232;-85
2023/07/04 09:29:24;;;;;;;0.97;0.53;;;;;;;17.80;nan;100512.91;4997741;28;20225;-85
2023/07/04 09:31:56;;;;;;;0.10;0.10;;;;;;;18.26;nan;100527.78;5000582;28;20275;-85
2023/07/04 09:34:26;;;;;;;5.97;1.63;;;;;;;18.38;nan;100504.72;5001243;28;20643;-86
2023/07/04 09:36:52;;;;;;;4.40;0.93;;;;;;;18.49;nan;100510.47;5000001;28;20235;-86
2023/07/04 09:39:17;;;;;;;1.00;0.90;;;;;;;18.72;nan;100530.75;5000506;28;20188;-85
2023/07/04 09:41:56;;;;;;;4.43;0.80;;;;;;;18.63;nan;100517.13;4995940;28;20194;-86
2023/07/04 09:44:33;;;;;;;1.97;1.10;;;;;;;18.78;nan;100526.53;4999099;28;20647;-86
2023/07/04 09:47:01;;;;;;;1.37;0.83;;;;;;;18.86;nan;100516.41;5000353;28;20205;-87
2023/07/04 09:49:29;;;;;;;0.00;0.00;;;;;;;18.94;nan;100518.13;4999065;28;20209;-85
2023/07/04 09:52:13;;;;;;;0.63;0.60;;;;;;;19.15;nan;100520.53;4998442;28;20177;-86
2023/07/04 09:54:41;;;;;;;5.47;1.20;;;;;;;19.10;nan;100504.22;4991020;28;20563;-85
2023/07/04 09:57:28;;;;;;;1.30;0.73;;;;;;;19.32;nan;100515.31;5012193;28;20296;-86
2023/07/04 09:59:54;;;;;;;0.30;0.30;;;;;;;19.15;nan;100504.72;4990805;28;20200;-86
2023/07/04 10:02:25;;;;;;;0.80;0.80;;;;;;;18.88;nan;100478.88;5010282;28;20189;-89
2023/07/04 10:04:52;;;;;;;5.07;0.77;;;;;;;18.87;nan;100490.31;4996023;28;20195;-85
2023/07/04 10:07:22;;;;;;;2.17;1.00;;;;;;;18.82;nan;100472.06;4997188;28;20261;-86
2023/07/04 10:10:01;;;;;;;0.83;0.77;;;;;;;18.99;nan;100493.72;4997863;28;20205;-86
2023/07/04 10:12:29;;;;;;;3.87;1.60;;;;;;;18.88;nan;100484.41;4997427;28;20258;-85
2023/07/04 10:14:57;;;;;;;3.53;1.73;;;;;;;18.99;nan;100479.09;4997176;28;20187;-85
2023/07/04 10:17:35;;;;;;;0.73;0.73;;;;;;;18.97;nan;100470.34;4998643;28;20200;-86
2023/07/04 10:20:10;;;;;;;0.30;0.30;;;;;;;19.26;nan;100502.94;4998374;28;20654;-85
2023/07/04 10:22:38;;;;;;;1.17;1.07;;;;;;;19.42;nan;100480.66;5005187;28;20764;-85
2023/07/04 10:25:11;;;;;;;3.23;1.60;;;;;;;19.18;nan;100456.88;4995437;28;20648;-86
2023/07/04 10:27:39;;;;;;;0.60;0.60;;;;;;;19.21;nan;100458.91;4997989;23;20700;-78
2023/07/04 10:30:08;;;;;;;0.50;0.40;;;;;;;19.42;nan;100466.00;4954648;28;20217;-79
2023/07/04 10:32:40;;;;;;;2.57;1.60;;;;;;;19.69;nan;100467.66;4955648;28;20189;-78
2023/07/04 10:35:11;;;;;;;3.67;1.57;;;;;;;19.90;nan;100489.34;4955502;29;20193;-78
2023/07/04 10:37:38;;;;;;;8.90;2.17;;;;;;;19.56;nan;100469.03;4955134;28;20281;-78
2023/07/04 10:40:09;;;;;;;0.73;0.73;;;;;;;19.27;nan;100462.19;4956066;28;20214;-79
2023/07/04 10:42:45;;;;;;;4.40;1.40;;;;;;;18.97;nan;100445.44;4954544;28;20187;-78
2023/07/04 10:45:14;;;;;;;0.07;0.00;;;;;;;19.17;nan;100469.13;4953155;28;20197;-78
2023/07/04 10:47:41;;;;;;;2.60;1.73;;;;;;;19.30;nan;100472.50;4956149;28;20189;-78
2023/07/04 10:50:24;;;;;;;2.83;2.10;;;;;;;19.30;nan;100464.22;4952722;28;20234;-77
2023/07/04 10:52:50;;;;;;;1.30;1.20;;;;;;;19.15;nan;100457.63;4952185;29;20190;-78
2023/07/04 10:55:34;;;;;;;0.90;0.80;;;;;;;19.42;nan;100452.94;4954982;28;20531;-77
2023/07/04 10:58:12;;;;;;;4.57;1.53;;;;;;;19.43;nan;100449.00;4969681;28;20725;-77
2023/07/04 11:00:49;;;;;;;3.33;1.90;;;;;;;19.60;nan;100447.69;4947544;29;20181;-78
2023/07/04 11:03:22;;;;;;;2.20;2.03;;;;;;;19.80;nan;100445.63;4969077;28;20210;-78
2023/07/04 11:05:51;;;;;;;7.00;1.27;;;;;;;19.96;nan;100462.88;4953034;28;20241;-78
2023/07/04 11:08:22;;;;;;;0.77;0.77;;;;;;;20.27;nan;100464.53;4954526;28;20197;-78
2023/07/04 11:10:57;;;;;;;0.30;0.30;;;;;;;20.53;nan;100472.00;4954615;28;20673;-78
2023/07/04 11:13:24;;;;;;;0.40;0.40;;;;;;;20.53;nan;100449.78;4954572;28;20206;-78
2023/07/04 11:15:59;;;;;;;0.63;0.63;;;;;;;20.24;nan;100442.25;4954629;28;20613;-78
2023/07/04 11:18:32;;;;;;;3.10;1.80;;;;;;;19.93;nan;100427.59;4954461;28;20216;-78
2023/07/04 11:21:08;;;;;;;3.47;1.93;;;;;;;20.18;nan;100461.22;4954297;28;20193;-78
2023/07/04 11:23:49;;;;;;;2.30;1.87;;;;;;;20.35;nan;100462.63;4953216;28;20268;-78
2023/07/04 11:26:19;;;;;;;2.27;1.33;;;;;;;20.12;nan;100438.56;4954477;28;20182;-79
2023/07/04 11:29:03;;;;;;;3.67;1.13;;;;;;;20.29;nan;100445.53;4954260;28;20194;-78
2023/07/04 11:31:30;;;;;;;5.73;0.97;;;;;;;20.57;nan;100467.31;4954655;28;20182;-78
2023/07/04 11:33:56;;;;;;;2.23;1.60;;;;;;;20.63;nan;100454.66;4953095;28;20297;-78
2023/07/04 11:36:49;;;;;;;3.43;2.57;;;;;;;20.70;nan;100468.66;4954659;29;20261;-79
2023/07/04 11:39:29;;;;;;;3.83;2.00;;;;;;;20.70;nan;100435.34;4954493;28;20256;-78
2023/07/04 11:41:55;;;;;;;1.73;1.40;;;;;;;20.56;nan;100420.50;4954759;28;20672;-78
2023/07/04 11:44:28;;;;;;;3.20;1.43;;;;;;;20.84;nan;100448.56;4953972;28;20241;-78
2023/07/04 11:47:01;;;;;;;2.97;1.77;;;;;;;20.92;nan;100443.88;4954757;28;20540;-78
2023/07/04 11:49:29;;;;;;;2.13;1.93;;;;;;;20.91;nan;100447.84;4952957;28;20210;-78